KDMO/DMO METAR and TAF weather

Enter ICAO airport designator
Station Type Date Time Source
KDMO METAR 2021/10/24 20:15 UTC NOAA

KDMO 242015Z AUTO 20015G26KT 10SM -RA FEW045 BKN065 24/18 A2957 RMK AO2 PK WND 21026/2008 LTG DSNT E P0000 T02440183 $


Station Type Date Time Source
KDMO Decoded METAR 2021/10/24 20:15 UTC NOAA

SEDALIA MEMORIAL AIRPORT, MO, United States (KDMO) 38-43N 93-10W 274M
Oct 24, 2021 - 04:15 PM EDT / 2021.10.24 2015 UTC
Wind: from the SSW (200 degrees) at 17 MPH (15 KT) gusting to 30 MPH (26 KT):0
Visibility: 10 mile(s):0
Sky conditions: mostly cloudy
Weather: light rain; Lightning observed
Precipitation last hour: A trace
Temperature: 75.9 F (24.4 C)
Dew Point: 64.9 F (18.3 C)
Relative Humidity: 68%
Pressure (altimeter): 29.57 in. Hg (1001 hPa)
ob: KDMO 242015Z AUTO 20015G26KT 10SM -RA FEW045 BKN065 24/18 A2957 RMK AO2 PK WND 21026/2008 LTG DSNT E P0000 T02440183
cycle: 20

Station Type Date Time Source
KDMO TAF UTC NOAA

Error!

Example: see airport list